sensor_id;sensor_type;location;lat;lon;timestamp;P1;durP1;ratioP1;P2;durP2;ratioP2
47912;SDS011;33676;51.006;17.180;2022-10-18T00:01:07;7.70;;;7.00;;
47912;SDS011;33676;51.006;17.180;2022-10-18T00:03:41;6.50;;;5.90;;
47912;SDS011;33676;51.006;17.180;2022-10-18T00:06:15;6.70;;;6.00;;
47912;SDS011;33676;51.006;17.180;2022-10-18T00:08:43;7.60;;;6.90;;
47912;SDS011;33676;51.006;17.180;2022-10-18T00:11:11;9.30;;;6.50;;
47912;SDS011;33676;51.006;17.180;2022-10-18T00:13:40;6.20;;;5.60;;
47912;SDS011;33676;51.006;17.180;2022-10-18T00:16:11;7.70;;;6.30;;
47912;SDS011;33676;51.006;17.180;2022-10-18T00:18:43;6.40;;;5.70;;
47912;SDS011;33676;51.006;17.180;2022-10-18T00:21:14;7.90;;;6.00;;
47912;SDS011;33676;51.006;17.180;2022-10-18T00:23:48;6.60;;;5.90;;
47912;SDS011;33676;51.006;17.180;2022-10-18T00:26:25;7.60;;;6.40;;
47912;SDS011;33676;51.006;17.180;2022-10-18T00:28:57;5.50;;;4.90;;
47912;SDS011;33676;51.006;17.180;2022-10-18T00:31:30;6.50;;;6.00;;
47912;SDS011;33676;51.006;17.180;2022-10-18T00:34:03;7.40;;;6.10;;
47912;SDS011;33676;51.006;17.180;2022-10-18T00:36:33;6.50;;;5.80;;
47912;SDS011;33676;51.006;17.180;2022-10-18T00:39:03;7.90;;;5.80;;
47912;SDS011;33676;51.006;17.180;2022-10-18T00:41:34;6.40;;;5.90;;
47912;SDS011;33676;51.006;17.180;2022-10-18T00:46:44;6.30;;;5.70;;
47912;SDS011;33676;51.006;17.180;2022-10-18T00:49:33;7.40;;;6.10;;
47912;SDS011;33676;51.006;17.180;2022-10-18T00:52:06;5.80;;;5.30;;
47912;SDS011;33676;51.006;17.180;2022-10-18T00:54:41;6.20;;;5.20;;
47912;SDS011;33676;51.006;17.180;2022-10-18T00:57:11;6.50;;;5.40;;
47912;SDS011;33676;51.006;17.180;2022-10-18T00:59:41;5.50;;;4.80;;
47912;SDS011;33676;51.006;17.180;2022-10-18T01:02:10;6.80;;;6.10;;
47912;SDS011;33676;51.006;17.180;2022-10-18T01:04:42;6.30;;;5.80;;
47912;SDS011;33676;51.006;17.180;2022-10-18T01:10:17;6.20;;;5.60;;
47912;SDS011;33676;51.006;17.180;2022-10-18T01:13:18;5.80;;;5.40;;
47912;SDS011;33676;51.006;17.180;2022-10-18T01:19:42;6.80;;;6.00;;
47912;SDS011;33676;51.006;17.180;2022-10-18T01:22:36;6.40;;;5.90;;
47912;SDS011;33676;51.006;17.180;2022-10-18T01:31:18;5.00;;;4.60;;
47912;SDS011;33676;51.006;17.180;2022-10-18T01:33:56;6.10;;;5.50;;
47912;SDS011;33676;51.006;17.180;2022-10-18T01:36:40;5.70;;;5.30;;
47912;SDS011;33676;51.006;17.180;2022-10-18T01:39:23;6.20;;;5.70;;
47912;SDS011;33676;51.006;17.180;2022-10-18T01:41:55;6.40;;;5.80;;
47912;SDS011;33676;51.006;17.180;2022-10-18T01:44:27;6.30;;;5.40;;
47912;SDS011;33676;51.006;17.180;2022-10-18T01:46:59;8.30;;;5.90;;
47912;SDS011;33676;51.006;17.180;2022-10-18T01:49:28;5.90;;;5.40;;
47912;SDS011;33676;51.006;17.180;2022-10-18T01:51:56;6.60;;;5.60;;
47912;SDS011;33676;51.006;17.180;2022-10-18T01:54:28;6.80;;;5.70;;
47912;SDS011;33676;51.006;17.180;2022-10-18T02:00:24;7.20;;;5.40;;
47912;SDS011;33676;51.006;17.180;2022-10-18T02:03:24;7.60;;;6.90;;
47912;SDS011;33676;51.006;17.180;2022-10-18T02:06:04;6.50;;;6.00;;
47912;SDS011;33676;51.006;17.180;2022-10-18T02:09:04;5.80;;;5.30;;
47912;SDS011;33676;51.006;17.180;2022-10-18T02:11:36;6.50;;;5.90;;
47912;SDS011;33676;51.006;17.180;2022-10-18T02:14:10;7.40;;;5.80;;
47912;SDS011;33676;51.006;17.180;2022-10-18T02:16:53;6.40;;;5.80;;
47912;SDS011;33676;51.006;17.180;2022-10-18T02:19:36;6.80;;;6.10;;
47912;SDS011;33676;51.006;17.180;2022-10-18T02:22:10;8.10;;;6.00;;
47912;SDS011;33676;51.006;17.180;2022-10-18T02:24:45;7.00;;;6.40;;
47912;SDS011;33676;51.006;17.180;2022-10-18T02:27:18;5.70;;;5.20;;
47912;SDS011;33676;51.006;17.180;2022-10-18T02:29:46;8.30;;;5.50;;
47912;SDS011;33676;51.006;17.180;2022-10-18T02:32:30;7.90;;;5.70;;
47912;SDS011;33676;51.006;17.180;2022-10-18T02:35:10;9.70;;;6.30;;
47912;SDS011;33676;51.006;17.180;2022-10-18T02:37:49;6.50;;;5.90;;
47912;SDS011;33676;51.006;17.180;2022-10-18T02:40:19;5.50;;;4.80;;
47912;SDS011;33676;51.006;17.180;2022-10-18T02:42:52;6.40;;;5.60;;
47912;SDS011;33676;51.006;17.180;2022-10-18T02:45:23;7.50;;;6.80;;
47912;SDS011;33676;51.006;17.180;2022-10-18T02:47:52;8.00;;;6.70;;
47912;SDS011;33676;51.006;17.180;2022-10-18T02:50:20;8.20;;;5.70;;
47912;SDS011;33676;51.006;17.180;2022-10-18T02:52:49;7.30;;;6.60;;
47912;SDS011;33676;51.006;17.180;2022-10-18T02:55:17;6.70;;;6.10;;
47912;SDS011;33676;51.006;17.180;2022-10-18T02:57:45;6.70;;;6.10;;
47912;SDS011;33676;51.006;17.180;2022-10-18T03:00:14;6.70;;;5.60;;
47912;SDS011;33676;51.006;17.180;2022-10-18T03:02:42;7.90;;;6.80;;
47912;SDS011;33676;51.006;17.180;2022-10-18T03:05:11;8.00;;;7.10;;
47912;SDS011;33676;51.006;17.180;2022-10-18T03:07:39;6.20;;;5.40;;
47912;SDS011;33676;51.006;17.180;2022-10-18T03:10:07;7.30;;;6.60;;
47912;SDS011;33676;51.006;17.180;2022-10-18T03:12:36;8.10;;;6.00;;
47912;SDS011;33676;51.006;17.180;2022-10-18T03:15:04;6.70;;;6.10;;
47912;SDS011;33676;51.006;17.180;2022-10-18T03:17:33;6.40;;;5.80;;
47912;SDS011;33676;51.006;17.180;2022-10-18T03:20:01;7.20;;;6.50;;
47912;SDS011;33676;51.006;17.180;2022-10-18T03:22:30;7.70;;;6.90;;
47912;SDS011;33676;51.006;17.180;2022-10-18T03:24:58;8.00;;;7.30;;
47912;SDS011;33676;51.006;17.180;2022-10-18T03:27:26;8.40;;;7.20;;
47912;SDS011;33676;51.006;17.180;2022-10-18T03:29:54;7.60;;;7.00;;
47912;SDS011;33676;51.006;17.180;2022-10-18T03:32:23;7.60;;;6.30;;
47912;SDS011;33676;51.006;17.180;2022-10-18T03:34:51;10.10;;;7.40;;
47912;SDS011;33676;51.006;17.180;2022-10-18T03:37:20;8.90;;;6.70;;
47912;SDS011;33676;51.006;17.180;2022-10-18T03:39:49;7.30;;;6.20;;
47912;SDS011;33676;51.006;17.180;2022-10-18T03:42:17;7.50;;;6.80;;
47912;SDS011;33676;51.006;17.180;2022-10-18T03:44:45;8.70;;;7.80;;
47912;SDS011;33676;51.006;17.180;2022-10-18T03:47:14;11.50;;;6.30;;
47912;SDS011;33676;51.006;17.180;2022-10-18T03:49:42;12.10;;;7.70;;
47912;SDS011;33676;51.006;17.180;2022-10-18T03:52:10;7.60;;;6.90;;
47912;SDS011;33676;51.006;17.180;2022-10-18T03:54:38;9.00;;;7.30;;
47912;SDS011;33676;51.006;17.180;2022-10-18T03:57:06;7.80;;;7.10;;
47912;SDS011;33676;51.006;17.180;2022-10-18T03:59:35;18.40;;;7.50;;
47912;SDS011;33676;51.006;17.180;2022-10-18T04:02:03;12.00;;;7.60;;
47912;SDS011;33676;51.006;17.180;2022-10-18T04:04:32;7.90;;;7.20;;
47912;SDS011;33676;51.006;17.180;2022-10-18T04:07:00;7.30;;;6.60;;
47912;SDS011;33676;51.006;17.180;2022-10-18T04:09:28;10.40;;;8.30;;
47912;SDS011;33676;51.006;17.180;2022-10-18T04:11:56;8.30;;;7.00;;
47912;SDS011;33676;51.006;17.180;2022-10-18T04:14:24;7.70;;;6.90;;
47912;SDS011;33676;51.006;17.180;2022-10-18T04:16:53;8.20;;;7.50;;
47912;SDS011;33676;51.006;17.180;2022-10-18T04:19:22;8.60;;;7.90;;
47912;SDS011;33676;51.006;17.180;2022-10-18T04:21:50;9.10;;;7.90;;
47912;SDS011;33676;51.006;17.180;2022-10-18T04:24:19;11.50;;;8.80;;
47912;SDS011;33676;51.006;17.180;2022-10-18T04:26:47;11.40;;;8.10;;
47912;SDS011;33676;51.006;17.180;2022-10-18T04:29:16;9.20;;;7.20;;
47912;SDS011;33676;51.006;17.180;2022-10-18T04:31:44;7.90;;;7.20;;
47912;SDS011;33676;51.006;17.180;2022-10-18T04:34:13;8.20;;;7.30;;
47912;SDS011;33676;51.006;17.180;2022-10-18T04:36:41;10.30;;;8.70;;
47912;SDS011;33676;51.006;17.180;2022-10-18T04:39:09;9.90;;;7.70;;
47912;SDS011;33676;51.006;17.180;2022-10-18T04:41:38;23.80;;;10.30;;
47912;SDS011;33676;51.006;17.180;2022-10-18T04:44:07;14.30;;;9.20;;
47912;SDS011;33676;51.006;17.180;2022-10-18T04:46:36;19.50;;;9.40;;
47912;SDS011;33676;51.006;17.180;2022-10-18T04:49:05;8.70;;;7.40;;
47912;SDS011;33676;51.006;17.180;2022-10-18T04:51:33;9.60;;;8.00;;
47912;SDS011;33676;51.006;17.180;2022-10-18T04:54:02;15.20;;;8.70;;
47912;SDS011;33676;51.006;17.180;2022-10-18T04:56:34;9.50;;;7.90;;
47912;SDS011;33676;51.006;17.180;2022-10-18T04:59:17;11.80;;;7.80;;
47912;SDS011;33676;51.006;17.180;2022-10-18T05:01:45;9.70;;;8.00;;
47912;SDS011;33676;51.006;17.180;2022-10-18T05:04:14;17.20;;;8.40;;
47912;SDS011;33676;51.006;17.180;2022-10-18T05:06:43;17.40;;;8.80;;
47912;SDS011;33676;51.006;17.180;2022-10-18T05:09:17;10.90;;;7.90;;
47912;SDS011;33676;51.006;17.180;2022-10-18T05:11:46;12.90;;;7.80;;
47912;SDS011;33676;51.006;17.180;2022-10-18T05:14:15;11.90;;;9.50;;
47912;SDS011;33676;51.006;17.180;2022-10-18T05:16:44;10.20;;;7.90;;
47912;SDS011;33676;51.006;17.180;2022-10-18T05:19:13;10.90;;;8.60;;
47912;SDS011;33676;51.006;17.180;2022-10-18T05:21:42;8.90;;;8.20;;
47912;SDS011;33676;51.006;17.180;2022-10-18T05:24:11;8.10;;;7.20;;
47912;SDS011;33676;51.006;17.180;2022-10-18T05:26:40;10.00;;;8.80;;
47912;SDS011;33676;51.006;17.180;2022-10-18T05:29:09;8.40;;;7.50;;
47912;SDS011;33676;51.006;17.180;2022-10-18T05:31:41;11.00;;;7.90;;
47912;SDS011;33676;51.006;17.180;2022-10-18T05:34:12;7.60;;;6.90;;
47912;SDS011;33676;51.006;17.180;2022-10-18T05:36:41;9.10;;;7.30;;
47912;SDS011;33676;51.006;17.180;2022-10-18T05:39:13;17.70;;;8.40;;
47912;SDS011;33676;51.006;17.180;2022-10-18T05:41:41;14.30;;;8.70;;
47912;SDS011;33676;51.006;17.180;2022-10-18T05:44:13;10.20;;;7.50;;
47912;SDS011;33676;51.006;17.180;2022-10-18T05:46:42;9.70;;;7.30;;
47912;SDS011;33676;51.006;17.180;2022-10-18T05:49:12;9.20;;;8.30;;
47912;SDS011;33676;51.006;17.180;2022-10-18T05:51:40;16.00;;;9.40;;
47912;SDS011;33676;51.006;17.180;2022-10-18T05:54:11;13.10;;;8.60;;
47912;SDS011;33676;51.006;17.180;2022-10-18T05:56:41;13.20;;;9.20;;
47912;SDS011;33676;51.006;17.180;2022-10-18T05:59:12;12.80;;;8.00;;
47912;SDS011;33676;51.006;17.180;2022-10-18T06:01:41;14.30;;;8.70;;
47912;SDS011;33676;51.006;17.180;2022-10-18T06:04:10;12.90;;;8.30;;
47912;SDS011;33676;51.006;17.180;2022-10-18T06:06:38;14.00;;;9.30;;
47912;SDS011;33676;51.006;17.180;2022-10-18T06:09:07;13.20;;;9.00;;
47912;SDS011;33676;51.006;17.180;2022-10-18T06:11:36;14.90;;;9.10;;
47912;SDS011;33676;51.006;17.180;2022-10-18T06:14:04;9.80;;;8.80;;
47912;SDS011;33676;51.006;17.180;2022-10-18T06:16:35;11.00;;;8.60;;
47912;SDS011;33676;51.006;17.180;2022-10-18T06:19:08;12.30;;;8.70;;
47912;SDS011;33676;51.006;17.180;2022-10-18T06:21:37;16.10;;;9.70;;
47912;SDS011;33676;51.006;17.180;2022-10-18T06:24:05;10.20;;;7.90;;
47912;SDS011;33676;51.006;17.180;2022-10-18T06:26:33;10.30;;;8.00;;
47912;SDS011;33676;51.006;17.180;2022-10-18T06:29:02;9.60;;;8.10;;
47912;SDS011;33676;51.006;17.180;2022-10-18T06:31:30;11.20;;;8.30;;
47912;SDS011;33676;51.006;17.180;2022-10-18T06:33:58;10.30;;;8.60;;
47912;SDS011;33676;51.006;17.180;2022-10-18T06:36:27;10.10;;;9.10;;
47912;SDS011;33676;51.006;17.180;2022-10-18T06:38:56;11.10;;;9.30;;
47912;SDS011;33676;51.006;17.180;2022-10-18T06:41:24;9.40;;;8.20;;
47912;SDS011;33676;51.006;17.180;2022-10-18T06:43:53;10.00;;;8.90;;
47912;SDS011;33676;51.006;17.180;2022-10-18T06:46:24;9.20;;;8.30;;
47912;SDS011;33676;51.006;17.180;2022-10-18T06:48:53;11.10;;;9.40;;
47912;SDS011;33676;51.006;17.180;2022-10-18T06:51:21;10.40;;;9.30;;
47912;SDS011;33676;51.006;17.180;2022-10-18T06:53:49;9.20;;;8.20;;
47912;SDS011;33676;51.006;17.180;2022-10-18T06:56:33;10.60;;;9.50;;
47912;SDS011;33676;51.006;17.180;2022-10-18T06:59:02;10.20;;;9.20;;
47912;SDS011;33676;51.006;17.180;2022-10-18T07:01:31;11.30;;;9.00;;
47912;SDS011;33676;51.006;17.180;2022-10-18T07:04:00;9.00;;;8.20;;
47912;SDS011;33676;51.006;17.180;2022-10-18T07:06:28;10.10;;;8.10;;
47912;SDS011;33676;51.006;17.180;2022-10-18T07:08:56;10.90;;;9.00;;
47912;SDS011;33676;51.006;17.180;2022-10-18T07:11:25;9.00;;;8.10;;
47912;SDS011;33676;51.006;17.180;2022-10-18T07:13:57;8.40;;;7.30;;
47912;SDS011;33676;51.006;17.180;2022-10-18T07:16:30;8.60;;;7.90;;
47912;SDS011;33676;51.006;17.180;2022-10-18T07:19:00;12.80;;;8.50;;
47912;SDS011;33676;51.006;17.180;2022-10-18T07:21:29;8.70;;;7.90;;
47912;SDS011;33676;51.006;17.180;2022-10-18T07:23:57;9.10;;;8.20;;
47912;SDS011;33676;51.006;17.180;2022-10-18T07:26:30;9.90;;;8.90;;
47912;SDS011;33676;51.006;17.180;2022-10-18T07:29:05;9.20;;;8.30;;
47912;SDS011;33676;51.006;17.180;2022-10-18T07:31:36;11.30;;;8.80;;
47912;SDS011;33676;51.006;17.180;2022-10-18T07:34:07;9.50;;;8.60;;
47912;SDS011;33676;51.006;17.180;2022-10-18T07:36:39;10.70;;;8.60;;
47912;SDS011;33676;51.006;17.180;2022-10-18T07:39:07;8.40;;;6.70;;
47912;SDS011;33676;51.006;17.180;2022-10-18T07:41:36;9.10;;;7.80;;
47912;SDS011;33676;51.006;17.180;2022-10-18T07:44:04;11.60;;;9.00;;
47912;SDS011;33676;51.006;17.180;2022-10-18T07:46:32;10.00;;;8.10;;
47912;SDS011;33676;51.006;17.180;2022-10-18T07:49:01;9.00;;;8.20;;
47912;SDS011;33676;51.006;17.180;2022-10-18T07:51:29;9.20;;;8.20;;
47912;SDS011;33676;51.006;17.180;2022-10-18T07:53:59;9.30;;;8.40;;
47912;SDS011;33676;51.006;17.180;2022-10-18T07:56:27;8.50;;;7.80;;
47912;SDS011;33676;51.006;17.180;2022-10-18T07:58:56;10.20;;;9.20;;
47912;SDS011;33676;51.006;17.180;2022-10-18T08:01:24;8.90;;;7.80;;
47912;SDS011;33676;51.006;17.180;2022-10-18T08:03:53;9.60;;;7.90;;
47912;SDS011;33676;51.006;17.180;2022-10-18T08:06:22;9.80;;;8.90;;
47912;SDS011;33676;51.006;17.180;2022-10-18T08:08:50;10.20;;;9.00;;
47912;SDS011;33676;51.006;17.180;2022-10-18T08:11:21;20.30;;;10.10;;
47912;SDS011;33676;51.006;17.180;2022-10-18T08:13:52;10.40;;;9.50;;
47912;SDS011;33676;51.006;17.180;2022-10-18T08:16:25;10.20;;;8.70;;
47912;SDS011;33676;51.006;17.180;2022-10-18T08:18:58;9.80;;;9.00;;
47912;SDS011;33676;51.006;17.180;2022-10-18T08:21:27;9.20;;;8.40;;
47912;SDS011;33676;51.006;17.180;2022-10-18T08:23:55;14.00;;;10.70;;
47912;SDS011;33676;51.006;17.180;2022-10-18T08:26:23;10.70;;;8.70;;
47912;SDS011;33676;51.006;17.180;2022-10-18T08:28:52;10.70;;;9.60;;
47912;SDS011;33676;51.006;17.180;2022-10-18T08:31:36;11.90;;;10.50;;
47912;SDS011;33676;51.006;17.180;2022-10-18T08:34:04;9.90;;;9.00;;
47912;SDS011;33676;51.006;17.180;2022-10-18T08:36:33;9.90;;;9.00;;
47912;SDS011;33676;51.006;17.180;2022-10-18T08:39:01;11.10;;;10.00;;
47912;SDS011;33676;51.006;17.180;2022-10-18T08:44:16;9.80;;;8.60;;
47912;SDS011;33676;51.006;17.180;2022-10-18T08:46:49;35.80;;;13.00;;
47912;SDS011;33676;51.006;17.180;2022-10-18T08:49:28;10.90;;;9.20;;
47912;SDS011;33676;51.006;17.180;2022-10-18T08:52:33;8.80;;;7.90;;
47912;SDS011;33676;51.006;17.180;2022-10-18T08:55:29;9.40;;;8.40;;
47912;SDS011;33676;51.006;17.180;2022-10-18T09:04:20;8.40;;;7.60;;
47912;SDS011;33676;51.006;17.180;2022-10-18T09:07:14;10.40;;;8.70;;
47912;SDS011;33676;51.006;17.180;2022-10-18T09:13:00;9.50;;;8.50;;
47912;SDS011;33676;51.006;17.180;2022-10-18T09:21:50;8.60;;;7.80;;
47912;SDS011;33676;51.006;17.180;2022-10-18T09:24:39;12.70;;;8.40;;
47912;SDS011;33676;51.006;17.180;2022-10-18T09:27:17;8.00;;;7.40;;
47912;SDS011;33676;51.006;17.180;2022-10-18T09:33:49;12.20;;;8.20;;
47912;SDS011;33676;51.006;17.180;2022-10-18T09:36:26;8.20;;;7.40;;
47912;SDS011;33676;51.006;17.180;2022-10-18T09:39:13;8.70;;;7.90;;
47912;SDS011;33676;51.006;17.180;2022-10-18T09:42:02;8.80;;;8.00;;
47912;SDS011;33676;51.006;17.180;2022-10-18T09:44:58;8.30;;;7.50;;
47912;SDS011;33676;51.006;17.180;2022-10-18T09:47:38;8.30;;;7.40;;
47912;SDS011;33676;51.006;17.180;2022-10-18T09:50:28;9.20;;;8.10;;
47912;SDS011;33676;51.006;17.180;2022-10-18T09:53:25;8.40;;;7.50;;
47912;SDS011;33676;51.006;17.180;2022-10-18T09:56:25;8.30;;;7.60;;
47912;SDS011;33676;51.006;17.180;2022-10-18T09:58:58;9.50;;;8.60;;
47912;SDS011;33676;51.006;17.180;2022-10-18T10:01:28;11.00;;;8.10;;
47912;SDS011;33676;51.006;17.180;2022-10-18T10:03:58;8.20;;;7.40;;
47912;SDS011;33676;51.006;17.180;2022-10-18T10:06:27;9.40;;;8.40;;
47912;SDS011;33676;51.006;17.180;2022-10-18T10:09:12;10.00;;;7.30;;
47912;SDS011;33676;51.006;17.180;2022-10-18T10:11:51;9.80;;;8.80;;
47912;SDS011;33676;51.006;17.180;2022-10-18T10:14:24;8.90;;;8.10;;
47912;SDS011;33676;51.006;17.180;2022-10-18T10:17:00;9.00;;;7.40;;
47912;SDS011;33676;51.006;17.180;2022-10-18T10:22:38;9.10;;;8.30;;
47912;SDS011;33676;51.006;17.180;2022-10-18T10:25:33;9.00;;;8.10;;
47912;SDS011;33676;51.006;17.180;2022-10-18T10:28:13;10.10;;;9.10;;
47912;SDS011;33676;51.006;17.180;2022-10-18T10:30:45;8.00;;;7.40;;
47912;SDS011;33676;51.006;17.180;2022-10-18T10:33:34;9.30;;;8.60;;
47912;SDS011;33676;51.006;17.180;2022-10-18T10:36:15;9.70;;;7.70;;
47912;SDS011;33676;51.006;17.180;2022-10-18T10:38:45;8.70;;;7.90;;
47912;SDS011;33676;51.006;17.180;2022-10-18T10:41:39;8.00;;;7.20;;
47912;SDS011;33676;51.006;17.180;2022-10-18T10:44:16;9.60;;;8.80;;
47912;SDS011;33676;51.006;17.180;2022-10-18T10:46:47;10.00;;;9.00;;
47912;SDS011;33676;51.006;17.180;2022-10-18T10:49:20;12.10;;;9.10;;
47912;SDS011;33676;51.006;17.180;2022-10-18T10:52:16;9.10;;;8.30;;
47912;SDS011;33676;51.006;17.180;2022-10-18T10:54:56;9.90;;;9.20;;
47912;SDS011;33676;51.006;17.180;2022-10-18T10:57:46;9.20;;;8.00;;
47912;SDS011;33676;51.006;17.180;2022-10-18T11:00:38;9.60;;;8.70;;
47912;SDS011;33676;51.006;17.180;2022-10-18T11:03:18;9.50;;;8.50;;
47912;SDS011;33676;51.006;17.180;2022-10-18T11:05:57;10.50;;;8.40;;
47912;SDS011;33676;51.006;17.180;2022-10-18T11:08:34;9.50;;;8.70;;
47912;SDS011;33676;51.006;17.180;2022-10-18T11:11:22;8.00;;;7.40;;
47912;SDS011;33676;51.006;17.180;2022-10-18T11:17:10;9.50;;;8.60;;
47912;SDS011;33676;51.006;17.180;2022-10-18T11:22:41;9.00;;;8.20;;
47912;SDS011;33676;51.006;17.180;2022-10-18T11:25:22;10.60;;;8.90;;
47912;SDS011;33676;51.006;17.180;2022-10-18T11:28:08;9.90;;;8.50;;
47912;SDS011;33676;51.006;17.180;2022-10-18T11:34:30;11.00;;;9.90;;
47912;SDS011;33676;51.006;17.180;2022-10-18T11:40:40;10.20;;;8.20;;
47912;SDS011;33676;51.006;17.180;2022-10-18T11:46:48;9.10;;;8.20;;
47912;SDS011;33676;51.006;17.180;2022-10-18T11:49:47;9.00;;;8.30;;
47912;SDS011;33676;51.006;17.180;2022-10-18T12:01:23;10.90;;;8.70;;
47912;SDS011;33676;51.006;17.180;2022-10-18T12:04:12;11.60;;;9.00;;
47912;SDS011;33676;51.006;17.180;2022-10-18T12:06:49;10.90;;;9.80;;
47912;SDS011;33676;51.006;17.180;2022-10-18T12:09:41;8.80;;;7.90;;
47912;SDS011;33676;51.006;17.180;2022-10-18T12:12:23;8.20;;;7.50;;
47912;SDS011;33676;51.006;17.180;2022-10-18T12:15:15;12.00;;;9.30;;
47912;SDS011;33676;51.006;17.180;2022-10-18T12:18:11;8.30;;;7.50;;
47912;SDS011;33676;51.006;17.180;2022-10-18T12:20:46;9.50;;;6.90;;
47912;SDS011;33676;51.006;17.180;2022-10-18T12:23:32;8.30;;;7.50;;
47912;SDS011;33676;51.006;17.180;2022-10-18T12:26:06;8.70;;;7.70;;
47912;SDS011;33676;51.006;17.180;2022-10-18T12:28:48;7.90;;;7.00;;
47912;SDS011;33676;51.006;17.180;2022-10-18T12:31:39;7.90;;;7.30;;
47912;SDS011;33676;51.006;17.180;2022-10-18T12:37:04;10.40;;;7.70;;
47912;SDS011;33676;51.006;17.180;2022-10-18T12:39:50;7.20;;;6.60;;
47912;SDS011;33676;51.006;17.180;2022-10-18T12:42:45;7.30;;;6.70;;
47912;SDS011;33676;51.006;17.180;2022-10-18T12:47:53;7.20;;;6.70;;
47912;SDS011;33676;51.006;17.180;2022-10-18T12:50:36;7.00;;;6.40;;
47912;SDS011;33676;51.006;17.180;2022-10-18T12:53:16;9.10;;;6.90;;
47912;SDS011;33676;51.006;17.180;2022-10-18T12:55:49;7.00;;;6.50;;
47912;SDS011;33676;51.006;17.180;2022-10-18T12:58:25;9.80;;;8.90;;
47912;SDS011;33676;51.006;17.180;2022-10-18T13:01:02;8.20;;;7.30;;
47912;SDS011;33676;51.006;17.180;2022-10-18T13:03:51;7.70;;;7.00;;
47912;SDS011;33676;51.006;17.180;2022-10-18T13:06:22;8.00;;;7.20;;
47912;SDS011;33676;51.006;17.180;2022-10-18T13:09:18;9.40;;;7.00;;
47912;SDS011;33676;51.006;17.180;2022-10-18T13:11:47;8.70;;;7.90;;
47912;SDS011;33676;51.006;17.180;2022-10-18T13:17:59;8.50;;;7.70;;
47912;SDS011;33676;51.006;17.180;2022-10-18T13:20:41;8.50;;;7.70;;
47912;SDS011;33676;51.006;17.180;2022-10-18T13:23:45;15.80;;;9.00;;
47912;SDS011;33676;51.006;17.180;2022-10-18T13:26:38;8.60;;;7.20;;
47912;SDS011;33676;51.006;17.180;2022-10-18T13:29:46;8.80;;;7.80;;
47912;SDS011;33676;51.006;17.180;2022-10-18T13:35:42;8.60;;;7.70;;
47912;SDS011;33676;51.006;17.180;2022-10-18T13:38:44;7.80;;;7.10;;
47912;SDS011;33676;51.006;17.180;2022-10-18T13:41:22;9.30;;;8.10;;
47912;SDS011;33676;51.006;17.180;2022-10-18T13:46:24;10.70;;;9.20;;
47912;SDS011;33676;51.006;17.180;2022-10-18T13:55:32;9.50;;;7.70;;
47912;SDS011;33676;51.006;17.180;2022-10-18T14:01:44;8.30;;;7.60;;
47912;SDS011;33676;51.006;17.180;2022-10-18T14:04:41;8.80;;;7.50;;
47912;SDS011;33676;51.006;17.180;2022-10-18T14:07:41;10.00;;;9.10;;
47912;SDS011;33676;51.006;17.180;2022-10-18T14:10:32;9.30;;;8.00;;
47912;SDS011;33676;51.006;17.180;2022-10-18T14:13:35;9.60;;;8.70;;
47912;SDS011;33676;51.006;17.180;2022-10-18T14:22:27;9.30;;;8.50;;
47912;SDS011;33676;51.006;17.180;2022-10-18T14:25:02;10.30;;;9.30;;
47912;SDS011;33676;51.006;17.180;2022-10-18T14:27:45;9.50;;;8.60;;
47912;SDS011;33676;51.006;17.180;2022-10-18T14:30:33;11.30;;;10.20;;
47912;SDS011;33676;51.006;17.180;2022-10-18T14:33:02;9.60;;;8.60;;
47912;SDS011;33676;51.006;17.180;2022-10-18T14:35:31;9.40;;;8.50;;
47912;SDS011;33676;51.006;17.180;2022-10-18T14:38:02;9.50;;;8.80;;
47912;SDS011;33676;51.006;17.180;2022-10-18T14:40:36;11.00;;;10.00;;
47912;SDS011;33676;51.006;17.180;2022-10-18T14:45:35;17.30;;;13.10;;
47912;SDS011;33676;51.006;17.180;2022-10-18T14:48:26;16.80;;;11.50;;
47912;SDS011;33676;51.006;17.180;2022-10-18T14:50:57;15.70;;;11.60;;
47912;SDS011;33676;51.006;17.180;2022-10-18T15:07:00;11.10;;;9.10;;
47912;SDS011;33676;51.006;17.180;2022-10-18T15:09:31;8.70;;;8.00;;
47912;SDS011;33676;51.006;17.180;2022-10-18T15:12:03;8.40;;;7.70;;
47912;SDS011;33676;51.006;17.180;2022-10-18T15:14:33;8.50;;;7.70;;
47912;SDS011;33676;51.006;17.180;2022-10-18T15:17:14;7.10;;;6.20;;
47912;SDS011;33676;51.006;17.180;2022-10-18T15:19:58;6.20;;;5.70;;
47912;SDS011;33676;51.006;17.180;2022-10-18T15:22:33;5.80;;;5.40;;
47912;SDS011;33676;51.006;17.180;2022-10-18T15:27:34;3.30;;;3.10;;
47912;SDS011;33676;51.006;17.180;2022-10-18T15:30:15;3.40;;;3.20;;
47912;SDS011;33676;51.006;17.180;2022-10-18T15:32:52;3.30;;;3.10;;
47912;SDS011;33676;51.006;17.180;2022-10-18T15:35:25;4.30;;;3.00;;
47912;SDS011;33676;51.006;17.180;2022-10-18T15:37:57;3.10;;;2.80;;
47912;SDS011;33676;51.006;17.180;2022-10-18T15:40:35;2.20;;;2.10;;
47912;SDS011;33676;51.006;17.180;2022-10-18T15:45:54;3.40;;;3.20;;
47912;SDS011;33676;51.006;17.180;2022-10-18T15:51:06;2.40;;;2.20;;
47912;SDS011;33676;51.006;17.180;2022-10-18T15:53:55;5.10;;;4.60;;
47912;SDS011;33676;51.006;17.180;2022-10-18T15:56:31;4.50;;;4.20;;
47912;SDS011;33676;51.006;17.180;2022-10-18T15:59:11;2.90;;;2.70;;
47912;SDS011;33676;51.006;17.180;2022-10-18T16:01:49;1.80;;;1.70;;
47912;SDS011;33676;51.006;17.180;2022-10-18T16:06:51;2.10;;;2.00;;
47912;SDS011;33676;51.006;17.180;2022-10-18T16:09:22;1.80;;;1.70;;
47912;SDS011;33676;51.006;17.180;2022-10-18T16:11:52;2.10;;;1.90;;
47912;SDS011;33676;51.006;17.180;2022-10-18T16:17:03;1.50;;;1.40;;
47912;SDS011;33676;51.006;17.180;2022-10-18T16:19:33;1.40;;;1.30;;
47912;SDS011;33676;51.006;17.180;2022-10-18T16:22:01;3.50;;;1.80;;
47912;SDS011;33676;51.006;17.180;2022-10-18T16:24:34;1.40;;;1.30;;
47912;SDS011;33676;51.006;17.180;2022-10-18T16:27:02;1.90;;;1.80;;
47912;SDS011;33676;51.006;17.180;2022-10-18T16:29:32;1.80;;;1.70;;
47912;SDS011;33676;51.006;17.180;2022-10-18T16:32:00;2.20;;;2.10;;
47912;SDS011;33676;51.006;17.180;2022-10-18T16:34:28;1.60;;;1.50;;
47912;SDS011;33676;51.006;17.180;2022-10-18T16:36:59;1.80;;;1.70;;
47912;SDS011;33676;51.006;17.180;2022-10-18T16:39:27;4.40;;;2.60;;
47912;SDS011;33676;51.006;17.180;2022-10-18T16:41:59;4.80;;;3.60;;
47912;SDS011;33676;51.006;17.180;2022-10-18T16:44:27;2.70;;;2.50;;
47912;SDS011;33676;51.006;17.180;2022-10-18T16:46:55;2.70;;;2.30;;
47912;SDS011;33676;51.006;17.180;2022-10-18T16:49:25;2.40;;;2.00;;
47912;SDS011;33676;51.006;17.180;2022-10-18T16:51:53;4.30;;;2.80;;
47912;SDS011;33676;51.006;17.180;2022-10-18T16:54:22;3.10;;;2.40;;
47912;SDS011;33676;51.006;17.180;2022-10-18T16:56:50;3.10;;;2.80;;
47912;SDS011;33676;51.006;17.180;2022-10-18T16:59:23;3.90;;;3.00;;
47912;SDS011;33676;51.006;17.180;2022-10-18T17:01:54;4.20;;;3.90;;
47912;SDS011;33676;51.006;17.180;2022-10-18T17:04:22;3.90;;;3.60;;
47912;SDS011;33676;51.006;17.180;2022-10-18T17:06:51;5.30;;;4.30;;
47912;SDS011;33676;51.006;17.180;2022-10-18T17:09:24;4.40;;;4.00;;
47912;SDS011;33676;51.006;17.180;2022-10-18T17:11:52;3.60;;;3.40;;
47912;SDS011;33676;51.006;17.180;2022-10-18T17:14:21;3.40;;;3.10;;
47912;SDS011;33676;51.006;17.180;2022-10-18T17:16:49;4.00;;;3.70;;
47912;SDS011;33676;51.006;17.180;2022-10-18T17:19:24;6.50;;;5.90;;
47912;SDS011;33676;51.006;17.180;2022-10-18T17:21:52;10.00;;;8.40;;
47912;SDS011;33676;51.006;17.180;2022-10-18T17:24:20;7.50;;;6.60;;